Aviation Digital Data Service (ADDS)

Output produced by METARs form (2037 UTC 21 July 2017)
found at http://www.aviationweather.gov/adds/metars/
 
YPAD 212000Z 03014KT CAVOK 12/02 Q1017 NOSIG
TAF AMD YPAD 211726Z 2118/2224 03010KT CAVOK 
     FM220000 33018KT CAVOK 
     FM220800 31010KT CAVOK 
     FM221500 29012KT 9999 SCT010 SCT020 INTER 2215/2224 5000 SHRA BKN010 BKN020
       
YABA 212000Z AUTO 30011KT 9999 // SCT044 OVC053 10/07 Q1012
YMAY 212030Z AUTO 29002KT 0450 // OVC002 00/00 Q1024
YBAS 212000Z AUTO 08001KT 9999 // NCD 04/M07 Q1021
TAF YBAS 211702Z 2118/2218 30004KT CAVOK 
     FM220000 03006KT CAVOK 
     FM220400 13006KT CAVOK
       
YAMB 212000Z AUTO /////KT 9999 // NCD 02/00 Q1022
TAF YAMB 211629Z 2118/2212 VRB05KT CAVOK
       
YARG 212000Z AUTO 00000KT 9999 // NCD 17/M03 Q1017
YMAV 212000Z AUTO 05010KT 9999 // NCD 01/01 Q1018 RF00.0////./
TAF AMD YMAV 211724Z 2118/2218 02006KT CAVOK 
     BECMG 2201/2203 34016G30KT CAVOK
       
YAYE 212000Z AUTO 17005KT 150V230 9999 // NCD 07/03 Q1019
YLEC 212000Z AUTO 03004KT //// // ////// 07/M02 Q1021
YLHI 212000Z AUTO 23014KT 9999 // SCT034 SCT049 BKN065 16/13 Q1016
TAF YLHI 211729Z 2118/2218 22020G30KT 9999 -SHRA SCT030 
     FM220000 21015G25KT 9999 -SHRA SCT035 
     FM220700 21012KT 9999 -SHRA SCT030 
     FM221000 23008KT 9999 SCT030
       
YLIS 212000Z AUTO 36002KT 9999 // NCD 03/02 Q1022
YLRE 212000Z AUTO 13006KT 9999 // NCD 07/M03 Q1019
YBNA 212000Z AUTO 00000KT 9999 // NCD 05/04 Q1023
YBWX 212000Z AUTO 19021KT //// // ////// 19/11 Q1016
YBDV 212000Z AUTO 16003KT //// // ////// 06/M03 Q1021
YBAS 212000Z AUTO 08001KT 9999 // NCD 04/M07 Q1021
TAF YBAS 211702Z 2118/2218 30004KT CAVOK 
     FM220000 03006KT CAVOK 
     FM220400 13006KT CAVOK
       
YBBN 212000Z 21008KT CAVOK 06/04 Q1022
TAF YBBN 211704Z 2118/2224 21007KT CAVOK 
     FM220200 07008KT CAVOK 
     FM220900 VRB06KT CAVOK 
     FM221200 21005KT CAVOK
       
YBCG 212000Z AUTO 20007KT 9999 // NCD 13/05 Q1021 RF00.0/000.0
TAF YBCG 211704Z 2118/2218 20010KT CAVOK 
     FM220200 17010KT 9999 SCT030 
     FM220400 14010KT 9999 SCT040 
     FM220700 22006KT 9999 FEW030
       
YBCS 212000Z 17008KT 9999 FEW025 BKN040 21/15 Q1017
TAF YBCS 211725Z 2118/2218 17008KT 9999 FEW025 SCT040 
     FM212300 13014KT 9999 SCT035 
     FM221200 15008KT 9999 FEW025
       
YBCV 212000Z AUTO 00000KT 9999 // NCD 01/M03 Q1022
YBDV 212000Z AUTO 16003KT //// // ////// 06/M03 Q1021
YBHI 212000Z AUTO 01005KT 9999 // NCD 06/M02 Q1021
YBHM 212000Z AUTO 15015KT 9999 // NCD 19/14 Q1020
TAF YBHM 211617Z 2118/2206 14014KT 9999 FEW025 
     FM220100 14017KT 9999 FEW030
       
YBMA 212000Z AUTO 00000KT 9999 // NCD 03/M04 Q1019
TAF YBMA 211612Z 2118/2206 15005KT CAVOK 
     FM212300 12010KT CAVOK
       
YBMK 212000Z AUTO 25005KT 9999 // NCD 08/06 Q1020
YBNA 212000Z AUTO 00000KT 9999 // NCD 05/04 Q1023
YBOK 212000Z AUTO 11003KT 9999 // NCD M02/M03 Q1022
YBPN 212000Z AUTO 22006KT 9999 // NCD 08/07 Q1020
YBRK 212000Z AUTO 00000KT 9999 // NCD 06/04 Q1021
TAF YBRK 211703Z 2118/2218 VRB05KT CAVOK 
     FM220000 13008KT CAVOK 
     FM220200 09010KT CAVOK 
     FM221000 14005KT CAVOK
       
YBRM 212030Z AUTO 00000KT 0500 // OVC001 16/16 Q1015
TAF AMD YBRM 211900Z 2119/2218 VRB03KT 0300 FG BKN001 
     FM212400 VRB03KT CAVOK 
     FM220400 24008KT CAVOK 
     FM221500 VRB03KT CAVOK
       
YBTL 212000Z 00000KT 9999 FEW025 SCT030 14/13 Q1019
TAF YBTL 211713Z 2118/2218 21005KT 9999 FEW020 
     FM220100 06012KT 9999 FEW035 
     FM220900 10006KT 9999 FEW035 
     FM221300 20005KT 9999 FEW022
       
YBUD 212000Z AUTO 21005KT 9999 // NCD 08/05 Q1021
YBWP 212000Z AUTO 00000KT 9999 // NCD 21/18 Q1014
YBWX 212000Z AUTO 19021KT //// // ////// 19/11 Q1016
YBBN 212000Z 21008KT CAVOK 06/04 Q1022
TAF YBBN 211704Z 2118/2224 21007KT CAVOK 
     FM220200 07008KT CAVOK 
     FM220900 VRB06KT CAVOK 
     FM221200 21005KT CAVOK
       
YBHI 212000Z AUTO 01005KT 9999 // NCD 06/M02 Q1021
YBRM 212030Z AUTO 00000KT 0500 // OVC001 16/16 Q1015
TAF AMD YBRM 211900Z 2119/2218 VRB03KT 0300 FG BKN001 
     FM212400 VRB03KT CAVOK 
     FM220400 24008KT CAVOK 
     FM221500 VRB03KT CAVOK
       
YBUD 212000Z AUTO 21005KT 9999 // NCD 08/05 Q1021
YBCS 212000Z 17008KT 9999 FEW025 BKN040 21/15 Q1017
TAF YBCS 211725Z 2118/2218 17008KT 9999 FEW025 SCT040 
     FM212300 13014KT 9999 SCT035 
     FM221200 15008KT 9999 FEW025
       
YSCB 212030Z 00000KT 9999 2000N BCFG BKN008 M07/M07 Q1023 NOSIG
TAF AMD YSCB 212028Z 2120/2218 VRB03KT 9999 BKN008 
     BECMG 2123/2201 30014KT CAVOK 
     FM220800 30006KT CAVOK 
     FM221400 30005KT 9999 FEW020 
     PROB30 2120/2123 0500 FZFG SCT001 
     PROB30 2123/2201 0500 FG SCT001
       
YCAR 212000Z AUTO 13006KT 9999 // NCD 11/10 Q1019
YCAS 212000Z AUTO 27003KT //// // ////// 03/01 Q1023
YCDU 212000Z AUTO 03005KT 9999 // SCT105 08/02 Q1016
YCAR 212000Z AUTO 13006KT 9999 // NCD 11/10 Q1019
YCAS 212000Z AUTO 27003KT //// // ////// 03/01 Q1023
YCBA 212000Z AUTO 06006KT 9999 // NCD 00/M04 Q1023
YCBB 212000Z AUTO 07007KT //// // ////// 04/M00 Q1023
YCBP 212000Z AUTO 02015KT 9999 // SCT115 09/M02 Q1018 PRESENT WEATHER SENSOR US
YCCY 212000Z AUTO 19006KT //// // ////// 08/M05 Q1018
YCDU 212000Z AUTO 03005KT 9999 // SCT105 08/02 Q1016
YCFS 212000Z AUTO 33003KT 9999 // NCD 05/04 Q1022
TAF YCFS 211728Z 2118/2218 22008KT CAVOK 
     FM220300 10008KT CAVOK 
     FM220800 VRB03KT CAVOK
       
YCIN 212000Z AUTO 17005KT 9999 // NCD 17/16 Q1014
TAF YCIN 211832Z 2120/2208 VRB05KT CAVOK
       
YCNM 212000Z AUTO 09002KT //// // ////// M02/M04 Q1023
YCOM 212030Z AUTO 36005KT 9999 // SCT001 M07/M07 Q1020
YBCV 212000Z AUTO 00000KT 9999 // NCD 01/M03 Q1022
YCCY 212000Z AUTO 19006KT //// // ////// 08/M05 Q1018
YCBA 212000Z AUTO 06006KT 9999 // NCD 00/M04 Q1023
YCBP 212000Z AUTO 02015KT 9999 // SCT115 09/M02 Q1018 PRESENT WEATHER SENSOR US
YBCG 212000Z AUTO 20007KT 9999 // NCD 13/05 Q1021 RF00.0/000.0
TAF YBCG 211704Z 2118/2218 20010KT CAVOK 
     FM220200 17010KT 9999 SCT030 
     FM220400 14010KT 9999 SCT040 
     FM220700 22006KT 9999 FEW030
       
YCOM 212030Z AUTO 36005KT 9999 // SCT001 M07/M07 Q1020
YCBB 212000Z AUTO 07007KT //// // ////// 04/M00 Q1023
YCNM 212000Z AUTO 09002KT //// // ////// M02/M04 Q1023
YCIN 212000Z AUTO 17005KT 9999 // NCD 17/16 Q1014
TAF YCIN 211832Z 2120/2208 VRB05KT CAVOK
       
YPDN 212000Z 16006KT CAVOK 20/17 Q1013 NOSIG
TAF YPDN 211702Z 2118/2224 VRB03KT CAVOK 
     FM220000 10010KT CAVOK 
     FM220600 33008KT CAVOK 
     FM221400 14005KT CAVOK
       
YDBY 212000Z AUTO 13004KT 9999 // NCD 16/13 Q1015
YSDU 212000Z AUTO 14006KT 9999 // NCD M04/M05 Q1023
TAF YSDU 211707Z 2118/2212 VRB03KT CAVOK 
     BECMG 2200/2202 30010KT CAVOK 
     PROB30 2118/2122 0500 FZFG
       
YEML 212000Z AUTO 16010KT 9999 // NCD 08/M01 Q1021
YESP 212000Z AUTO 28013KT 9999 // NCD 10/06 Q1013
YFRT 212000Z AUTO 29010KT //// // ////// 09/02 Q1016
TAF YFRT 211832Z 2120/2208 29008KT CAVOK
       
YGEL 212000Z AUTO 02007KT 9999 // NCD 10/09 Q1018
TAF YGEL 211633Z 2118/2212 27010KT 9999 -SHRA SCT040 
     FM220200 26010KT 9999 -SHRA BKN025 
     FM220900 22006KT 9999 -SHRA BKN030 INTER 2201/2212 3000 SHRA BKN015
       
YGLA 212000Z AUTO 21006KT 9999 // NCD 08/01 Q1021
TAF YGLA 211611Z 2118/2206 21007KT CAVOK 
     FM220000 13010KT CAVOK 
     FM220300 07010KT CAVOK
       
YPGV 212000Z AUTO 17004KT 9999 // SCT073 SCT089 22/21 Q1013
TAF YPGV 211827Z 2120/2208 16005KT 9999 FEW020 
     FM220000 14012KT 9999 FEW025
       
YGFN 212000Z AUTO 00000KT 9999 // NCD 02/01 Q1023
YGTH 212000Z AUTO 11006KT 9999 // NCD M03/M04 Q1022
YGTE 212000Z AUTO 00000KT 9999 // NCD 15/14 Q1014
YBHM 212000Z AUTO 15015KT 9999 // NCD 19/14 Q1020
TAF YBHM 211617Z 2118/2206 14014KT 9999 FEW025 
     FM220100 14017KT 9999 FEW030
       
YMHB 212000Z 35011KT CAVOK 06/01 Q1013
TAF YMHB 211729Z 2118/2218 33010KT 9999 FEW035 
     FM220500 34012KT 9999 SCT035 
     FM221400 33012KT 9999 -RA FEW020 BKN030
       
YHID 212000Z AUTO 14008KT 9999 // BKN019 OVC025 25/21 Q1013
TAF AMD YHID 211730Z 2117/2218 13012KT 9999 SCT018 BKN030 
     FM220000 13016G26KT 9999 SCT025 BKN040 
     FM221000 13012KT 9999 SCT018 BKN030
       
YHUG 212000Z AUTO 13008KT 9999 // NCD 12/01 Q1018
YPKG 212000Z AUTO 34004KT 9999 // NCD 06/03 Q1017
TAF YPKG 211703Z 2118/2218 27010KT CAVOK
       
YKRY 212000Z AUTO 00000KT 9999 // NCD M02/M03 Q1022
YKRY 212000Z AUTO 00000KT 9999 // NCD M02/M03 Q1022
YPKU 212035Z AUTO 19004KT 8000 // NCD 11/08 Q1016 RF00.0/000.0
TAF YPKU 211832Z 2120/2208 VRB03KT CAVOK 
     FM220200 12008KT CAVOK
       
YMLT 212000Z AUTO 36008KT 9999 // BKN042 04/03 Q1015 RF00.0/000.0
TAF YMLT 211735Z 2118/2218 34008KT 9999 SCT025 SCT040 
     FM220000 34015KT 9999 -SHRA BKN025 
     FM220500 33015KT 9999 -SHRA FEW010 BKN020 
     FM221400 33018G30KT 9999 -RA SCT010 BKN020 INTER 2214/2218 4000 RA BKN010
       
YPLM 212000Z AUTO 17009KT 9999 // NCD 14/10 Q1018
TAF YPLM 211703Z 2118/2218 17010KT CAVOK
       
YLEC 212000Z AUTO 03004KT //// // ////// 07/M02 Q1021
YLIS 212000Z AUTO 36002KT 9999 // NCD 03/02 Q1022
YLEC 212000Z AUTO 03004KT //// // ////// 07/M02 Q1021
YLHI 212000Z AUTO 23014KT 9999 // SCT034 SCT049 BKN065 16/13 Q1016
TAF YLHI 211729Z 2118/2218 22020G30KT 9999 -SHRA SCT030 
     FM220000 21015G25KT 9999 -SHRA SCT035 
     FM220700 21012KT 9999 -SHRA SCT030 
     FM221000 23008KT 9999 SCT030
       
YLIS 212000Z AUTO 36002KT 9999 // NCD 03/02 Q1022
YLRE 212000Z AUTO 13006KT 9999 // NCD 07/M03 Q1019
YLRE 212000Z AUTO 13006KT 9999 // NCD 07/M03 Q1019
YBMK 212000Z AUTO 25005KT 9999 // NCD 08/06 Q1020
YMAV 212000Z AUTO 05010KT 9999 // NCD 01/01 Q1018 RF00.0////./
TAF AMD YMAV 211724Z 2118/2218 02006KT CAVOK 
     BECMG 2201/2203 34016G30KT CAVOK
       
YMAY 212030Z AUTO 29002KT 0450 // OVC002 00/00 Q1024
YMDG 212000Z AUTO 00000KT 9999 // NCD M05/M06 Q1024
YMEK 212000Z AUTO 19004KT 9999 // NCD 07/02 Q1019
YMEN 212000Z AUTO 01016KT 9999 // NCD 07/03 Q1019
YMER 212000Z AUTO 26003KT 9999 // NCD 00/M01 Q1021
YMHB 212000Z 35011KT CAVOK 06/01 Q1013
TAF YMHB 211729Z 2118/2218 33010KT 9999 FEW035 
     FM220500 34012KT 9999 SCT035 
     FM221400 33012KT 9999 -RA FEW020 BKN030
       
YMIA 212000Z AUTO 03008KT 9999 // NCD 04/00 Q1020
YMLT 212000Z AUTO 36008KT 9999 // BKN042 04/03 Q1015 RF00.0/000.0
TAF YMLT 211735Z 2118/2218 34008KT 9999 SCT025 SCT040 
     FM220000 34015KT 9999 -SHRA BKN025 
     FM220500 33015KT 9999 -SHRA FEW010 BKN020 
     FM221400 33018G30KT 9999 -RA SCT010 BKN020 INTER 2214/2218 4000 RA BKN010
       
YMML 212000Z 36022KT CAVOK 06/02 Q1019 FM2000 MOD TURB BLW 5000FT FM2100 MOD/SEV TURB BLW 5000FT
TAF YMML 211723Z 2118/2224 36018G28KT CAVOK 
     FM212100 36024G40KT CAVOK 
     FM221600 34018G32KT CAVOK
       
YMOR 212000Z AUTO 11006KT 9999 // NCD 01/M01 Q1023
YMTG 212000Z AUTO 36015KT 9999 // SCT096 09/03 Q1014
YMEK 212000Z AUTO 19004KT 9999 // NCD 07/02 Q1019
YMEN 212000Z AUTO 01016KT 9999 // NCD 07/03 Q1019
YMML 212000Z 36022KT CAVOK 06/02 Q1019 FM2000 MOD TURB BLW 5000FT FM2100 MOD/SEV TURB BLW 5000FT
TAF YMML 211723Z 2118/2224 36018G28KT CAVOK 
     FM212100 36024G40KT CAVOK 
     FM221600 34018G32KT CAVOK
       
YMER 212000Z AUTO 26003KT 9999 // NCD 00/M01 Q1021
YMIA 212000Z AUTO 03008KT 9999 // NCD 04/00 Q1020
YMOR 212000Z AUTO 11006KT 9999 // NCD 01/M01 Q1023
YMTG 212000Z AUTO 36015KT 9999 // SCT096 09/03 Q1014
YBMA 212000Z AUTO 00000KT 9999 // NCD 03/M04 Q1019
TAF YBMA 211612Z 2118/2206 15005KT CAVOK 
     FM212300 12010KT CAVOK
       
YMDG 212000Z AUTO 00000KT 9999 // NCD M05/M06 Q1024
YNBR 212000Z AUTO 10001KT 9999 // NCD 02/M02 Q1023
YNAR 212000Z AUTO 13005KT //// // ////// M02/M02 Q1023
YNWN 212000Z AUTO 24005KT 9999 // NCD 11/03 Q1018
YNTN 212000Z AUTO 17009KT 9999 // NCD 17/M03 Q1015
YSNW 212000Z AUTO 30011KT 9999 // NCD 05/00 Q1022
YBOK 212000Z AUTO 11003KT 9999 // NCD M02/M03 Q1022
YOLD 212000Z AUTO 02010KT 9999 // NCD 09/M01 Q1019
TAF YOLD 211843Z 2120/2208 02010KT CAVOK 
     FM220100 34016KT CAVOK 
     FM220600 34012KT CAVOK
       
YPAD 212000Z 03014KT CAVOK 12/02 Q1017 NOSIG
TAF AMD YPAD 211726Z 2118/2224 03010KT CAVOK 
     FM220000 33018KT CAVOK 
     FM220800 31010KT CAVOK 
     FM221500 29012KT 9999 SCT010 SCT020 INTER 2215/2224 5000 SHRA BKN010 BKN020
       
YPBO 212000Z AUTO 03005KT 9999 // NCD 09/01 Q1018
YPCC 212000Z AUTO 13019KT 9999 // SCT032 25/18 Q1014
TAF YPCC 211703Z 2118/2218 13018KT 9999 -SHRA SCT022
       
YPDN 212000Z 16006KT CAVOK 20/17 Q1013 NOSIG
TAF YPDN 211702Z 2118/2224 VRB03KT CAVOK 
     FM220000 10010KT CAVOK 
     FM220600 33008KT CAVOK 
     FM221400 14005KT CAVOK
       
YPEA 212000Z AUTO 34005KT 9999 // OVC051 13/13 Q1016
TAF YPEA 211634Z 2118/2212 VRB05KT 9999 -SHRA SCT025 BKN030 
     FM220300 28012KT 9999 -SHRA BKN030 INTER 2118/2121 29022G32KT 3000 SHRA BKN012 INTER 2203/2212 4000 SHRA SCT015
       
YPGV 212000Z AUTO 17004KT 9999 // SCT073 SCT089 22/21 Q1013
TAF YPGV 211827Z 2120/2208 16005KT 9999 FEW020 
     FM220000 14012KT 9999 FEW025
       
YPJT 212000Z AUTO 01005KT 9000 // BKN047 10/09 Q1016 RF00.0/017.4
TAF AMD YPJT 211633Z 2118/2212 25008KT 9999 -SHRA SCT025 BKN030 
     FM220300 27010KT 9999 -SHRA BKN030 INTER 2118/2120 26020G30KT 3000 SHRA BKN012 INTER 2200/2212 4000 SHRA SCT015
       
YPKG 212000Z AUTO 34004KT 9999 // NCD 06/03 Q1017
TAF YPKG 211703Z 2118/2218 27010KT CAVOK
       
YPKU 212035Z AUTO 19004KT 8000 // NCD 11/08 Q1016 RF00.0/000.0
TAF YPKU 211832Z 2120/2208 VRB03KT CAVOK 
     FM220200 12008KT CAVOK
       
YPLM 212000Z AUTO 17009KT 9999 // NCD 14/10 Q1018
TAF YPLM 211703Z 2118/2218 17010KT CAVOK
       
YPPD 212000Z AUTO 27004KT 9999 // NCD 17/16 Q1015
TAF YPPD 211703Z 2118/2218 VRB03KT CAVOK 
     FM220500 34010KT CAVOK 
     FM221500 VRB03KT CAVOK 
     PROB30 2118/2124 0300 FG
       
YPPH 212030Z 03006KT 0150 R03/0800N FG 12/12 Q1016 NOSIG
TAF AMD YPPH 211951Z 2119/2224 26010KT 9999 -SHRA SCT025 BKN030 
     FM220900 29008KT 9999 -SHRA BKN030 
     FM221200 31006KT 9999 BKN030 INTER 2119/2120 5000 SHRA BKN012 INTER 2204/2212 4000 SHRA SCT015 
     PROB30 2119/2201 0300 FG BKN001
       
YPTN 212000Z AUTO 13005KT 9999 // NCD 14/04 Q1015
TAF YPTN 211702Z 2118/2218 12004KT CAVOK 
     FM220000 12010KT CAVOK 
     FM220600 12005KT CAVOK
       
YPWR 212000Z AUTO 01013KT 9999 // NCD 09/M00 Q1019
TAF YPWR 211710Z 2118/2212 01012KT CAVOK 
     FM220100 33018KT CAVOK 
     FM220800 34012KT CAVOK
       
YPXM 212030Z AUTO 13013KT 9999 // OVC004 23/22 Q1014
TAF YPXM 211703Z 2118/2218 12014KT 9999 -SHRA BKN006 INTER 2118/2218 0500 SHRA BKN001
       
YPBO 212000Z AUTO 03005KT 9999 // NCD 09/01 Q1018
YPEA 212000Z AUTO 34005KT 9999 // OVC051 13/13 Q1016
TAF YPEA 211634Z 2118/2212 VRB05KT 9999 -SHRA SCT025 BKN030 
     FM220300 28012KT 9999 -SHRA BKN030 INTER 2118/2121 29022G32KT 3000 SHRA BKN012 INTER 2203/2212 4000 SHRA SCT015
       
YPPH 212030Z 03006KT 0150 R03/0800N FG 12/12 Q1016 NOSIG
TAF AMD YPPH 211951Z 2119/2224 26010KT 9999 -SHRA SCT025 BKN030 
     FM220900 29008KT 9999 -SHRA BKN030 
     FM221200 31006KT 9999 BKN030 INTER 2119/2120 5000 SHRA BKN012 INTER 2204/2212 4000 SHRA SCT015 
     PROB30 2119/2201 0300 FG BKN001
       
YPJT 212000Z AUTO 01005KT 9000 // BKN047 10/09 Q1016 RF00.0/017.4
TAF AMD YPJT 211633Z 2118/2212 25008KT 9999 -SHRA SCT025 BKN030 
     FM220300 27010KT 9999 -SHRA BKN030 INTER 2118/2120 26020G30KT 3000 SHRA BKN012 INTER 2200/2212 4000 SHRA SCT015
       
YPPD 212000Z AUTO 27004KT 9999 // NCD 17/16 Q1015
TAF YPPD 211703Z 2118/2218 VRB03KT CAVOK 
     FM220500 34010KT CAVOK 
     FM221500 VRB03KT CAVOK 
     PROB30 2118/2124 0300 FG
       
YBPN 212000Z AUTO 22006KT 9999 // NCD 08/07 Q1020
YSRI 212030Z AUTO 00000KT 0900 // BKN001 M01/M02 Q1023 RF00/0/000/0 PRESENT WEATHER SENSOR US
TAF YSRI 211727Z 2118/2218 VRB03KT 2000 BR BKN002 
     FM212200 VRB03KT CAVOK 
     FM220300 30007KT CAVOK 
     FM220700 33005KT CAVOK 
     PROB40 2118/2123 0200 FZFG BKN001
       
YRMD 212000Z AUTO 11008KT //// // ////// 10/M05 Q1017
TAF YRMD 211811Z 2120/2208 12008KT CAVOK
       
YBRK 212000Z AUTO 00000KT 9999 // NCD 06/04 Q1021
TAF YBRK 211703Z 2118/2218 VRB05KT CAVOK 
     FM220000 13008KT CAVOK 
     FM220200 09010KT CAVOK 
     FM221000 14005KT CAVOK
       
YSCB 212030Z 00000KT 9999 2000N BCFG BKN008 M07/M07 Q1023 NOSIG
TAF AMD YSCB 212028Z 2120/2218 VRB03KT 9999 BKN008 
     BECMG 2123/2201 30014KT CAVOK 
     FM220800 30006KT CAVOK 
     FM221400 30005KT 9999 FEW020 
     PROB30 2120/2123 0500 FZFG SCT001 
     PROB30 2123/2201 0500 FG SCT001
       
YSDU 212000Z AUTO 14006KT 9999 // NCD M04/M05 Q1023
TAF YSDU 211707Z 2118/2212 VRB03KT CAVOK 
     BECMG 2200/2202 30010KT CAVOK 
     PROB30 2118/2122 0500 FZFG
       
YSNF 212013Z AUTO 22021G33KT 9999 // SCT035 SCT041 17/09 Q1011
TAF YSNF 211731Z 2118/2218 23025G35KT 9999 -SHRA SCT030 BKN050 
     FM220700 23018G28KT 9999 -SHRA SCT030 INTER 2118/2124 VRB30G40KT 5000 SHRA SCT015
       
YSNW 212000Z AUTO 30011KT 9999 // NCD 05/00 Q1022
YSRI 212030Z AUTO 00000KT 0900 // BKN001 M01/M02 Q1023 RF00/0/000/0 PRESENT WEATHER SENSOR US
TAF YSRI 211727Z 2118/2218 VRB03KT 2000 BR BKN002 
     FM212200 VRB03KT CAVOK 
     FM220300 30007KT CAVOK 
     FM220700 33005KT CAVOK 
     PROB40 2118/2123 0200 FZFG BKN001
       
YSSY 212000Z 32007KT CAVOK 06/02 Q1023 NOSIG
TAF YSSY 211735Z 2118/2224 29008KT CAVOK
       
YSTW 212036Z AUTO 00000KT 9999 // NCD M02/M03 Q1024 RF00.0/000.0
TAF YSTW 211641Z 2118/2212 10005KT CAVOK 
     FM220200 30007KT CAVOK 
     FM220800 VRB05KT CAVOK
       
YSWG 212000Z AUTO 11007KT 9999 // NCD 00/M01 Q1023
YKRY 212000Z AUTO 00000KT 9999 // NCD M02/M03 Q1022
YSSY 212000Z 32007KT CAVOK 06/02 Q1023 NOSIG
TAF YSSY 211735Z 2118/2224 29008KT CAVOK
       
YSTW 212036Z AUTO 00000KT 9999 // NCD M02/M03 Q1024 RF00.0/000.0
TAF YSTW 211641Z 2118/2212 10005KT CAVOK 
     FM220200 30007KT CAVOK 
     FM220800 VRB05KT CAVOK
       
YTRE 212000Z AUTO 27007KT 9999 // NCD 07/03 Q1022
TAF YTRE 211905Z 2120/2208 27007KT 9999 SCT045 
     FM220300 20005KT CAVOK
       
YTEF 212000Z AUTO 25007KT 9999 // BKN100 20/03 Q1015
YTNK 212000Z AUTO 10010KT 9999 // NCD 13/00 Q1019
TAF YTNK 211827Z 2120/2208 12005KT CAVOK 
     FM220000 12012KT CAVOK
       
YTEF 212000Z AUTO 25007KT 9999 // BKN100 20/03 Q1015
YTNK 212000Z AUTO 10010KT 9999 // NCD 13/00 Q1019
TAF YTNK 211827Z 2120/2208 12005KT CAVOK 
     FM220000 12012KT CAVOK
       
YTRE 212000Z AUTO 27007KT 9999 // NCD 07/03 Q1022
TAF YTRE 211905Z 2120/2208 27007KT 9999 SCT045 
     FM220300 20005KT CAVOK
       
YPTN 212000Z AUTO 13005KT 9999 // NCD 14/04 Q1015
TAF YPTN 211702Z 2118/2218 12004KT CAVOK 
     FM220000 12010KT CAVOK 
     FM220600 12005KT CAVOK
       
YBTL 212000Z 00000KT 9999 FEW025 SCT030 14/13 Q1019
TAF YBTL 211713Z 2118/2218 21005KT 9999 FEW020 
     FM220100 06012KT 9999 FEW035 
     FM220900 10006KT 9999 FEW035 
     FM221300 20005KT 9999 FEW022
       
YSWG 212000Z AUTO 11007KT 9999 // NCD 00/M01 Q1023
YWGT 212000Z AUTO 00000KT 9999 // SCT001 M03/M03 Q1023
TAF YWGT 211910Z 2120/2208 VRB05KT CAVOK 
     PROB30 2120/2124 0500 FG BKN002
       
YBWP 212000Z AUTO 00000KT 9999 // NCD 21/18 Q1014
YWHA 212000Z AUTO 35013KT 9999 // SCT105 10/01 Q1018
YWLM 212000Z AUTO 30013KT 9999 // NCD 05/03 Q1022
TAF YWLM 211725Z 2118/2218 29010KT 9999 FEW030 
     FM220700 33005KT CAVOK 
     FM221600 30012KT CAVOK
       
YPWR 212000Z AUTO 01013KT 9999 // NCD 09/M00 Q1019
TAF YPWR 211710Z 2118/2212 01012KT CAVOK 
     FM220100 33018KT CAVOK 
     FM220800 34012KT CAVOK